sensor_id;sensor_type;location;lat;lon;timestamp;P1;durP1;ratioP1;P2;durP2;ratioP2
22176;SDS011;11254;50.098;8.726;2022-11-13T00:00:41;19.30;;;8.25;;
22176;SDS011;11254;50.098;8.726;2022-11-13T00:03:28;21.58;;;8.02;;
22176;SDS011;11254;50.098;8.726;2022-11-13T00:06:15;19.55;;;8.10;;
22176;SDS011;11254;50.098;8.726;2022-11-13T00:09:04;13.77;;;7.05;;
22176;SDS011;11254;50.098;8.726;2022-11-13T00:11:51;15.30;;;7.55;;
22176;SDS011;11254;50.098;8.726;2022-11-13T00:14:38;24.00;;;7.38;;
22176;SDS011;11254;50.098;8.726;2022-11-13T00:17:26;26.63;;;7.65;;
22176;SDS011;11254;50.098;8.726;2022-11-13T00:20:13;23.75;;;7.35;;
22176;SDS011;11254;50.098;8.726;2022-11-13T00:23:00;15.93;;;7.70;;
22176;SDS011;11254;50.098;8.726;2022-11-13T00:25:49;14.43;;;7.22;;
22176;SDS011;11254;50.098;8.726;2022-11-13T00:28:36;15.85;;;8.48;;
22176;SDS011;11254;50.098;8.726;2022-11-13T00:31:23;16.15;;;7.93;;
22176;SDS011;11254;50.098;8.726;2022-11-13T00:34:11;14.05;;;7.45;;
22176;SDS011;11254;50.098;8.726;2022-11-13T00:37:17;15.25;;;7.15;;
22176;SDS011;11254;50.098;8.726;2022-11-13T00:40:05;17.60;;;7.75;;
22176;SDS011;11254;50.098;8.726;2022-11-13T00:42:53;14.52;;;6.82;;
22176;SDS011;11254;50.098;8.726;2022-11-13T00:45:40;16.42;;;7.63;;
22176;SDS011;11254;50.098;8.726;2022-11-13T00:48:27;14.93;;;7.82;;
22176;SDS011;11254;50.098;8.726;2022-11-13T00:51:14;17.08;;;7.78;;
22176;SDS011;11254;50.098;8.726;2022-11-13T00:54:03;15.02;;;6.97;;
22176;SDS011;11254;50.098;8.726;2022-11-13T00:56:50;17.17;;;7.82;;
22176;SDS011;11254;50.098;8.726;2022-11-13T00:59:38;13.75;;;7.57;;
22176;SDS011;11254;50.098;8.726;2022-11-13T01:02:25;15.32;;;7.40;;
22176;SDS011;11254;50.098;8.726;2022-11-13T01:05:12;13.77;;;6.35;;
22176;SDS011;11254;50.098;8.726;2022-11-13T01:07:59;15.30;;;6.88;;
22176;SDS011;11254;50.098;8.726;2022-11-13T01:10:46;12.65;;;6.95;;
22176;SDS011;11254;50.098;8.726;2022-11-13T01:13:37;25.77;;;7.88;;
22176;SDS011;11254;50.098;8.726;2022-11-13T01:16:26;15.80;;;7.32;;
22176;SDS011;11254;50.098;8.726;2022-11-13T01:19:13;19.23;;;7.45;;
22176;SDS011;11254;50.098;8.726;2022-11-13T01:22:00;16.00;;;7.78;;
22176;SDS011;11254;50.098;8.726;2022-11-13T01:24:47;16.23;;;7.35;;
22176;SDS011;11254;50.098;8.726;2022-11-13T01:27:34;15.63;;;7.43;;
22176;SDS011;11254;50.098;8.726;2022-11-13T01:30:21;12.45;;;6.78;;
22176;SDS011;11254;50.098;8.726;2022-11-13T01:33:09;14.10;;;6.70;;
22176;SDS011;11254;50.098;8.726;2022-11-13T01:35:58;12.57;;;6.88;;
22176;SDS011;11254;50.098;8.726;2022-11-13T01:38:46;12.52;;;6.53;;
22176;SDS011;11254;50.098;8.726;2022-11-13T01:41:33;13.73;;;6.38;;
22176;SDS011;11254;50.098;8.726;2022-11-13T01:44:20;11.65;;;6.28;;
22176;SDS011;11254;50.098;8.726;2022-11-13T01:47:07;13.32;;;6.85;;
22176;SDS011;11254;50.098;8.726;2022-11-13T01:49:56;13.18;;;6.22;;
22176;SDS011;11254;50.098;8.726;2022-11-13T01:52:43;12.15;;;6.72;;
22176;SDS011;11254;50.098;8.726;2022-11-13T01:55:30;9.98;;;5.88;;
22176;SDS011;11254;50.098;8.726;2022-11-13T01:58:17;39.20;;;6.57;;
22176;SDS011;11254;50.098;8.726;2022-11-13T02:01:04;19.15;;;6.38;;
22176;SDS011;11254;50.098;8.726;2022-11-13T02:03:51;11.05;;;5.90;;
22176;SDS011;11254;50.098;8.726;2022-11-13T02:06:41;11.82;;;5.93;;
22176;SDS011;11254;50.098;8.726;2022-11-13T02:09:30;13.20;;;6.38;;
22176;SDS011;11254;50.098;8.726;2022-11-13T02:12:20;21.65;;;6.35;;
22176;SDS011;11254;50.098;8.726;2022-11-13T02:15:07;10.60;;;5.90;;
22176;SDS011;11254;50.098;8.726;2022-11-13T02:17:55;18.35;;;7.03;;
22176;SDS011;11254;50.098;8.726;2022-11-13T02:20:44;15.45;;;6.32;;
22176;SDS011;11254;50.098;8.726;2022-11-13T02:23:36;14.00;;;7.10;;
22176;SDS011;11254;50.098;8.726;2022-11-13T02:26:28;19.20;;;8.15;;
22176;SDS011;11254;50.098;8.726;2022-11-13T02:29:17;21.40;;;8.32;;
22176;SDS011;11254;50.098;8.726;2022-11-13T02:32:04;17.35;;;8.32;;
22176;SDS011;11254;50.098;8.726;2022-11-13T02:34:50;18.27;;;8.63;;
22176;SDS011;11254;50.098;8.726;2022-11-13T02:37:38;20.98;;;8.60;;
22176;SDS011;11254;50.098;8.726;2022-11-13T02:40:25;13.45;;;7.45;;
22176;SDS011;11254;50.098;8.726;2022-11-13T02:43:13;24.35;;;7.15;;
22176;SDS011;11254;50.098;8.726;2022-11-13T02:46:00;15.90;;;6.80;;
22176;SDS011;11254;50.098;8.726;2022-11-13T02:48:47;15.07;;;6.93;;
22176;SDS011;11254;50.098;8.726;2022-11-13T02:51:33;13.77;;;6.60;;
22176;SDS011;11254;50.098;8.726;2022-11-13T02:54:20;13.93;;;7.15;;
22176;SDS011;11254;50.098;8.726;2022-11-13T02:57:07;12.13;;;6.30;;
22176;SDS011;11254;50.098;8.726;2022-11-13T02:59:55;12.13;;;6.25;;
22176;SDS011;11254;50.098;8.726;2022-11-13T03:02:42;10.68;;;5.95;;
22176;SDS011;11254;50.098;8.726;2022-11-13T03:05:29;15.80;;;6.25;;
22176;SDS011;11254;50.098;8.726;2022-11-13T03:08:16;10.73;;;5.65;;
22176;SDS011;11254;50.098;8.726;2022-11-13T03:11:05;10.60;;;5.40;;
22176;SDS011;11254;50.098;8.726;2022-11-13T03:13:53;19.85;;;6.28;;
22176;SDS011;11254;50.098;8.726;2022-11-13T03:16:42;13.63;;;6.85;;
22176;SDS011;11254;50.098;8.726;2022-11-13T03:19:28;15.38;;;6.80;;
22176;SDS011;11254;50.098;8.726;2022-11-13T03:22:16;13.02;;;6.40;;
22176;SDS011;11254;50.098;8.726;2022-11-13T03:25:03;11.57;;;6.18;;
22176;SDS011;11254;50.098;8.726;2022-11-13T03:27:55;12.57;;;6.38;;
22176;SDS011;11254;50.098;8.726;2022-11-13T03:30:42;9.98;;;5.20;;
22176;SDS011;11254;50.098;8.726;2022-11-13T03:33:30;10.50;;;5.40;;
22176;SDS011;11254;50.098;8.726;2022-11-13T03:36:17;10.55;;;5.50;;
22176;SDS011;11254;50.098;8.726;2022-11-13T03:39:04;10.80;;;5.90;;
22176;SDS011;11254;50.098;8.726;2022-11-13T03:41:51;12.00;;;6.15;;
22176;SDS011;11254;50.098;8.726;2022-11-13T03:44:37;10.73;;;5.82;;
22176;SDS011;11254;50.098;8.726;2022-11-13T03:47:26;11.20;;;5.97;;
22176;SDS011;11254;50.098;8.726;2022-11-13T03:50:15;10.63;;;5.78;;
22176;SDS011;11254;50.098;8.726;2022-11-13T03:53:03;11.65;;;6.10;;
22176;SDS011;11254;50.098;8.726;2022-11-13T03:55:52;9.70;;;5.38;;
22176;SDS011;11254;50.098;8.726;2022-11-13T03:58:41;10.88;;;5.55;;
22176;SDS011;11254;50.098;8.726;2022-11-13T04:01:33;11.85;;;5.85;;
22176;SDS011;11254;50.098;8.726;2022-11-13T04:04:23;13.77;;;6.03;;
22176;SDS011;11254;50.098;8.726;2022-11-13T04:07:12;10.65;;;5.95;;
22176;SDS011;11254;50.098;8.726;2022-11-13T04:10:00;10.25;;;5.90;;
22176;SDS011;11254;50.098;8.726;2022-11-13T04:12:49;10.57;;;6.15;;
22176;SDS011;11254;50.098;8.726;2022-11-13T04:15:37;10.45;;;6.07;;
22176;SDS011;11254;50.098;8.726;2022-11-13T04:18:25;11.60;;;6.43;;
22176;SDS011;11254;50.098;8.726;2022-11-13T04:21:14;12.38;;;6.43;;
22176;SDS011;11254;50.098;8.726;2022-11-13T04:24:03;9.73;;;5.40;;
22176;SDS011;11254;50.098;8.726;2022-11-13T04:26:51;11.20;;;6.00;;
22176;SDS011;11254;50.098;8.726;2022-11-13T04:29:40;11.90;;;5.93;;
22176;SDS011;11254;50.098;8.726;2022-11-13T04:32:29;12.13;;;6.40;;
22176;SDS011;11254;50.098;8.726;2022-11-13T04:35:16;12.32;;;6.07;;
22176;SDS011;11254;50.098;8.726;2022-11-13T04:38:03;10.88;;;5.88;;
22176;SDS011;11254;50.098;8.726;2022-11-13T04:40:51;12.25;;;6.43;;
22176;SDS011;11254;50.098;8.726;2022-11-13T04:43:54;10.77;;;5.50;;
22176;SDS011;11254;50.098;8.726;2022-11-13T04:46:41;13.30;;;6.40;;
22176;SDS011;11254;50.098;8.726;2022-11-13T04:49:27;15.10;;;6.88;;
22176;SDS011;11254;50.098;8.726;2022-11-13T04:52:16;10.88;;;6.47;;
22176;SDS011;11254;50.098;8.726;2022-11-13T04:55:04;12.77;;;6.68;;
22176;SDS011;11254;50.098;8.726;2022-11-13T04:57:54;11.35;;;5.85;;
22176;SDS011;11254;50.098;8.726;2022-11-13T05:00:41;10.07;;;5.82;;
22176;SDS011;11254;50.098;8.726;2022-11-13T05:03:29;9.77;;;5.75;;
22176;SDS011;11254;50.098;8.726;2022-11-13T05:06:17;9.93;;;5.90;;
22176;SDS011;11254;50.098;8.726;2022-11-13T05:09:05;10.50;;;5.57;;
22176;SDS011;11254;50.098;8.726;2022-11-13T05:11:53;12.90;;;6.60;;
22176;SDS011;11254;50.098;8.726;2022-11-13T05:14:42;12.98;;;6.63;;
22176;SDS011;11254;50.098;8.726;2022-11-13T05:17:30;13.02;;;7.13;;
22176;SDS011;11254;50.098;8.726;2022-11-13T05:20:19;13.25;;;7.20;;
22176;SDS011;11254;50.098;8.726;2022-11-13T05:23:07;12.77;;;6.90;;
22176;SDS011;11254;50.098;8.726;2022-11-13T05:25:59;11.60;;;6.60;;
22176;SDS011;11254;50.098;8.726;2022-11-13T05:28:48;10.43;;;6.10;;
22176;SDS011;11254;50.098;8.726;2022-11-13T05:31:38;13.23;;;6.80;;
22176;SDS011;11254;50.098;8.726;2022-11-13T05:34:25;11.07;;;5.97;;
22176;SDS011;11254;50.098;8.726;2022-11-13T05:37:12;11.52;;;5.97;;
22176;SDS011;11254;50.098;8.726;2022-11-13T05:39:58;12.90;;;6.43;;
22176;SDS011;11254;50.098;8.726;2022-11-13T05:42:45;11.30;;;6.05;;
22176;SDS011;11254;50.098;8.726;2022-11-13T05:45:32;12.00;;;5.68;;
22176;SDS011;11254;50.098;8.726;2022-11-13T05:48:20;12.63;;;6.32;;
22176;SDS011;11254;50.098;8.726;2022-11-13T05:51:08;11.90;;;6.45;;
22176;SDS011;11254;50.098;8.726;2022-11-13T05:53:55;11.23;;;6.05;;
22176;SDS011;11254;50.098;8.726;2022-11-13T05:56:43;11.27;;;5.57;;
22176;SDS011;11254;50.098;8.726;2022-11-13T05:59:29;10.43;;;5.78;;
22176;SDS011;11254;50.098;8.726;2022-11-13T06:02:16;12.75;;;5.82;;
22176;SDS011;11254;50.098;8.726;2022-11-13T06:05:05;12.32;;;5.70;;
22176;SDS011;11254;50.098;8.726;2022-11-13T06:07:52;12.18;;;6.20;;
22176;SDS011;11254;50.098;8.726;2022-11-13T06:10:39;9.70;;;5.65;;
22176;SDS011;11254;50.098;8.726;2022-11-13T06:13:26;12.93;;;6.30;;
22176;SDS011;11254;50.098;8.726;2022-11-13T06:16:14;11.85;;;5.75;;
22176;SDS011;11254;50.098;8.726;2022-11-13T06:19:04;11.82;;;6.32;;
22176;SDS011;11254;50.098;8.726;2022-11-13T06:21:55;10.23;;;5.95;;
22176;SDS011;11254;50.098;8.726;2022-11-13T06:24:43;10.40;;;5.72;;
22176;SDS011;11254;50.098;8.726;2022-11-13T06:27:31;11.10;;;5.72;;
22176;SDS011;11254;50.098;8.726;2022-11-13T06:30:20;11.45;;;6.03;;
22176;SDS011;11254;50.098;8.726;2022-11-13T06:33:07;9.85;;;5.40;;
22176;SDS011;11254;50.098;8.726;2022-11-13T06:35:54;14.43;;;6.35;;
22176;SDS011;11254;50.098;8.726;2022-11-13T06:38:42;10.35;;;6.05;;
22176;SDS011;11254;50.098;8.726;2022-11-13T06:41:29;9.05;;;5.43;;
22176;SDS011;11254;50.098;8.726;2022-11-13T06:44:16;11.60;;;5.63;;
22176;SDS011;11254;50.098;8.726;2022-11-13T06:47:03;9.30;;;5.20;;
22176;SDS011;11254;50.098;8.726;2022-11-13T06:49:53;11.30;;;6.00;;
22176;SDS011;11254;50.098;8.726;2022-11-13T06:52:42;9.95;;;6.03;;
22176;SDS011;11254;50.098;8.726;2022-11-13T06:55:32;11.10;;;6.00;;
22176;SDS011;11254;50.098;8.726;2022-11-13T06:58:22;10.07;;;5.72;;
22176;SDS011;11254;50.098;8.726;2022-11-13T07:01:14;12.05;;;5.78;;
22176;SDS011;11254;50.098;8.726;2022-11-13T07:04:03;11.07;;;5.53;;
22176;SDS011;11254;50.098;8.726;2022-11-13T07:06:53;10.93;;;5.80;;
22176;SDS011;11254;50.098;8.726;2022-11-13T07:09:42;9.50;;;5.40;;
22176;SDS011;11254;50.098;8.726;2022-11-13T07:12:30;11.68;;;5.82;;
22176;SDS011;11254;50.098;8.726;2022-11-13T07:15:19;10.50;;;5.55;;
22176;SDS011;11254;50.098;8.726;2022-11-13T07:18:09;10.75;;;5.97;;
22176;SDS011;11254;50.098;8.726;2022-11-13T07:21:04;9.80;;;5.40;;
22176;SDS011;11254;50.098;8.726;2022-11-13T07:23:54;10.75;;;5.75;;
22176;SDS011;11254;50.098;8.726;2022-11-13T07:26:45;11.70;;;6.18;;
22176;SDS011;11254;50.098;8.726;2022-11-13T07:29:35;10.63;;;5.63;;
22176;SDS011;11254;50.098;8.726;2022-11-13T07:32:26;10.77;;;5.88;;
22176;SDS011;11254;50.098;8.726;2022-11-13T07:35:15;10.98;;;6.40;;
22176;SDS011;11254;50.098;8.726;2022-11-13T07:38:05;10.38;;;5.63;;
22176;SDS011;11254;50.098;8.726;2022-11-13T07:40:56;12.68;;;5.85;;
22176;SDS011;11254;50.098;8.726;2022-11-13T07:43:45;10.23;;;5.72;;
22176;SDS011;11254;50.098;8.726;2022-11-13T07:46:36;10.80;;;5.75;;
22176;SDS011;11254;50.098;8.726;2022-11-13T07:49:26;12.20;;;6.43;;
22176;SDS011;11254;50.098;8.726;2022-11-13T07:52:16;12.52;;;6.22;;
22176;SDS011;11254;50.098;8.726;2022-11-13T07:55:06;11.63;;;5.97;;
22176;SDS011;11254;50.098;8.726;2022-11-13T07:57:56;11.57;;;5.75;;
22176;SDS011;11254;50.098;8.726;2022-11-13T08:00:43;10.50;;;6.25;;
22176;SDS011;11254;50.098;8.726;2022-11-13T08:03:35;11.93;;;6.15;;
22176;SDS011;11254;50.098;8.726;2022-11-13T08:06:25;10.77;;;6.30;;
22176;SDS011;11254;50.098;8.726;2022-11-13T08:09:14;11.88;;;6.47;;
22176;SDS011;11254;50.098;8.726;2022-11-13T08:12:04;12.77;;;7.18;;
22176;SDS011;11254;50.098;8.726;2022-11-13T08:14:53;10.73;;;6.50;;
22176;SDS011;11254;50.098;8.726;2022-11-13T08:17:40;10.93;;;6.25;;
22176;SDS011;11254;50.098;8.726;2022-11-13T08:20:29;12.98;;;6.75;;
22176;SDS011;11254;50.098;8.726;2022-11-13T08:23:19;11.63;;;7.28;;
22176;SDS011;11254;50.098;8.726;2022-11-13T08:26:08;10.90;;;6.50;;
22176;SDS011;11254;50.098;8.726;2022-11-13T08:28:58;12.23;;;6.88;;
22176;SDS011;11254;50.098;8.726;2022-11-13T08:31:48;10.65;;;6.28;;
22176;SDS011;11254;50.098;8.726;2022-11-13T08:34:35;10.27;;;6.32;;
22176;SDS011;11254;50.098;8.726;2022-11-13T08:37:25;10.15;;;6.40;;
22176;SDS011;11254;50.098;8.726;2022-11-13T08:40:15;10.85;;;6.32;;
22176;SDS011;11254;50.098;8.726;2022-11-13T08:43:05;11.02;;;6.22;;
22176;SDS011;11254;50.098;8.726;2022-11-13T08:45:52;9.85;;;5.78;;
22176;SDS011;11254;50.098;8.726;2022-11-13T08:48:40;11.02;;;6.55;;
22176;SDS011;11254;50.098;8.726;2022-11-13T08:51:29;12.73;;;5.97;;
22176;SDS011;11254;50.098;8.726;2022-11-13T08:54:19;11.70;;;6.30;;
22176;SDS011;11254;50.098;8.726;2022-11-13T08:57:10;11.57;;;6.93;;
22176;SDS011;11254;50.098;8.726;2022-11-13T09:00:00;10.18;;;6.07;;
22176;SDS011;11254;50.098;8.726;2022-11-13T09:02:52;11.93;;;7.10;;
22176;SDS011;11254;50.098;8.726;2022-11-13T09:05:40;11.82;;;7.10;;
22176;SDS011;11254;50.098;8.726;2022-11-13T09:08:28;10.02;;;6.07;;
22176;SDS011;11254;50.098;8.726;2022-11-13T09:11:17;13.15;;;6.80;;
22176;SDS011;11254;50.098;8.726;2022-11-13T09:14:04;9.85;;;6.20;;
22176;SDS011;11254;50.098;8.726;2022-11-13T09:16:51;12.02;;;6.70;;
22176;SDS011;11254;50.098;8.726;2022-11-13T09:19:37;10.05;;;6.13;;
22176;SDS011;11254;50.098;8.726;2022-11-13T09:22:24;10.00;;;5.68;;
22176;SDS011;11254;50.098;8.726;2022-11-13T09:25:11;9.52;;;5.45;;
22176;SDS011;11254;50.098;8.726;2022-11-13T09:27:59;9.77;;;5.47;;
22176;SDS011;11254;50.098;8.726;2022-11-13T09:30:47;8.20;;;5.50;;
22176;SDS011;11254;50.098;8.726;2022-11-13T09:33:33;9.80;;;6.20;;
22176;SDS011;11254;50.098;8.726;2022-11-13T09:36:20;8.98;;;6.00;;
22176;SDS011;11254;50.098;8.726;2022-11-13T09:39:07;8.50;;;6.05;;
22176;SDS011;11254;50.098;8.726;2022-11-13T09:41:55;10.93;;;6.43;;
22176;SDS011;11254;50.098;8.726;2022-11-13T09:44:49;10.25;;;5.90;;
22176;SDS011;11254;50.098;8.726;2022-11-13T09:47:39;8.75;;;5.85;;
22176;SDS011;11254;50.098;8.726;2022-11-13T09:50:30;8.82;;;5.25;;
22176;SDS011;11254;50.098;8.726;2022-11-13T09:53:17;8.68;;;5.43;;
22176;SDS011;11254;50.098;8.726;2022-11-13T09:56:07;8.18;;;5.03;;
22176;SDS011;11254;50.098;8.726;2022-11-13T09:59:04;8.18;;;5.30;;
22176;SDS011;11254;50.098;8.726;2022-11-13T10:02:06;9.20;;;5.13;;
22176;SDS011;11254;50.098;8.726;2022-11-13T10:05:00;7.55;;;5.47;;
22176;SDS011;11254;50.098;8.726;2022-11-13T10:07:52;8.30;;;5.78;;
22176;SDS011;11254;50.098;8.726;2022-11-13T10:10:47;8.32;;;5.63;;
22176;SDS011;11254;50.098;8.726;2022-11-13T10:13:41;10.25;;;5.60;;
22176;SDS011;11254;50.098;8.726;2022-11-13T10:16:31;9.35;;;6.32;;
22176;SDS011;11254;50.098;8.726;2022-11-13T10:19:20;8.68;;;5.93;;
22176;SDS011;11254;50.098;8.726;2022-11-13T10:22:11;9.63;;;6.50;;
22176;SDS011;11254;50.098;8.726;2022-11-13T10:25:18;10.00;;;6.63;;
22176;SDS011;11254;50.098;8.726;2022-11-13T10:28:10;8.82;;;5.88;;
22176;SDS011;11254;50.098;8.726;2022-11-13T10:31:17;8.52;;;5.80;;
22176;SDS011;11254;50.098;8.726;2022-11-13T10:34:04;11.00;;;7.32;;
22176;SDS011;11254;50.098;8.726;2022-11-13T10:36:56;11.77;;;7.43;;
22176;SDS011;11254;50.098;8.726;2022-11-13T10:39:46;9.40;;;6.35;;
22176;SDS011;11254;50.098;8.726;2022-11-13T10:42:35;8.93;;;5.97;;
22176;SDS011;11254;50.098;8.726;2022-11-13T10:45:23;9.80;;;6.05;;
22176;SDS011;11254;50.098;8.726;2022-11-13T10:48:19;12.35;;;7.35;;
22176;SDS011;11254;50.098;8.726;2022-11-13T10:51:17;11.18;;;6.45;;
22176;SDS011;11254;50.098;8.726;2022-11-13T10:54:15;10.80;;;6.32;;
22176;SDS011;11254;50.098;8.726;2022-11-13T10:57:17;10.15;;;6.07;;
22176;SDS011;11254;50.098;8.726;2022-11-13T11:00:17;11.40;;;6.68;;
22176;SDS011;11254;50.098;8.726;2022-11-13T11:03:06;8.98;;;6.20;;
22176;SDS011;11254;50.098;8.726;2022-11-13T11:05:55;10.02;;;6.50;;
22176;SDS011;11254;50.098;8.726;2022-11-13T11:08:41;11.07;;;6.50;;
22176;SDS011;11254;50.098;8.726;2022-11-13T11:11:30;9.60;;;6.13;;
22176;SDS011;11254;50.098;8.726;2022-11-13T11:14:56;9.40;;;6.20;;
22176;SDS011;11254;50.098;8.726;2022-11-13T11:17:45;10.75;;;6.55;;
22176;SDS011;11254;50.098;8.726;2022-11-13T11:20:39;10.75;;;6.53;;
22176;SDS011;11254;50.098;8.726;2022-11-13T11:23:36;10.93;;;6.75;;
22176;SDS011;11254;50.098;8.726;2022-11-13T11:26:27;12.25;;;7.95;;
22176;SDS011;11254;50.098;8.726;2022-11-13T11:29:21;10.48;;;7.00;;
22176;SDS011;11254;50.098;8.726;2022-11-13T11:32:14;10.75;;;7.05;;
22176;SDS011;11254;50.098;8.726;2022-11-13T11:35:12;11.43;;;7.18;;
22176;SDS011;11254;50.098;8.726;2022-11-13T11:38:09;10.85;;;6.55;;
22176;SDS011;11254;50.098;8.726;2022-11-13T11:41:07;10.65;;;6.68;;
22176;SDS011;11254;50.098;8.726;2022-11-13T11:44:03;13.50;;;7.13;;
22176;SDS011;11254;50.098;8.726;2022-11-13T11:47:01;11.23;;;6.53;;
22176;SDS011;11254;50.098;8.726;2022-11-13T11:49:49;9.48;;;6.00;;
22176;SDS011;11254;50.098;8.726;2022-11-13T11:52:47;10.32;;;6.10;;
22176;SDS011;11254;50.098;8.726;2022-11-13T11:55:49;10.48;;;6.30;;
22176;SDS011;11254;50.098;8.726;2022-11-13T11:58:51;8.85;;;6.00;;
22176;SDS011;11254;50.098;8.726;2022-11-13T12:01:59;9.75;;;6.38;;
22176;SDS011;11254;50.098;8.726;2022-11-13T12:04:56;10.35;;;6.20;;
22176;SDS011;11254;50.098;8.726;2022-11-13T12:07:55;9.65;;;6.10;;
22176;SDS011;11254;50.098;8.726;2022-11-13T12:10:48;8.93;;;6.22;;
22176;SDS011;11254;50.098;8.726;2022-11-13T12:13:41;9.32;;;5.80;;
22176;SDS011;11254;50.098;8.726;2022-11-13T12:16:37;10.98;;;5.93;;
22176;SDS011;11254;50.098;8.726;2022-11-13T12:19:32;8.18;;;4.78;;
22176;SDS011;11254;50.098;8.726;2022-11-13T12:22:27;8.63;;;5.43;;
22176;SDS011;11254;50.098;8.726;2022-11-13T12:25:23;8.25;;;4.60;;
22176;SDS011;11254;50.098;8.726;2022-11-13T12:28:19;8.20;;;4.90;;
22176;SDS011;11254;50.098;8.726;2022-11-13T12:31:16;9.02;;;5.10;;
22176;SDS011;11254;50.098;8.726;2022-11-13T12:34:11;10.00;;;5.40;;
22176;SDS011;11254;50.098;8.726;2022-11-13T12:37:04;7.45;;;5.10;;
22176;SDS011;11254;50.098;8.726;2022-11-13T12:39:55;9.07;;;5.00;;
22176;SDS011;11254;50.098;8.726;2022-11-13T12:42:47;9.13;;;4.82;;
22176;SDS011;11254;50.098;8.726;2022-11-13T12:45:48;9.70;;;5.75;;
22176;SDS011;11254;50.098;8.726;2022-11-13T12:48:38;8.63;;;5.35;;
22176;SDS011;11254;50.098;8.726;2022-11-13T12:51:36;8.68;;;5.03;;
22176;SDS011;11254;50.098;8.726;2022-11-13T12:54:27;9.88;;;6.03;;
22176;SDS011;11254;50.098;8.726;2022-11-13T12:57:20;9.10;;;5.60;;
22176;SDS011;11254;50.098;8.726;2022-11-13T13:00:22;9.55;;;5.18;;
22176;SDS011;11254;50.098;8.726;2022-11-13T13:03:24;7.25;;;4.75;;
22176;SDS011;11254;50.098;8.726;2022-11-13T13:06:18;7.53;;;4.63;;
22176;SDS011;11254;50.098;8.726;2022-11-13T13:09:14;7.97;;;5.30;;
22176;SDS011;11254;50.098;8.726;2022-11-13T13:12:06;9.07;;;5.40;;
22176;SDS011;11254;50.098;8.726;2022-11-13T13:15:26;8.82;;;5.30;;
22176;SDS011;11254;50.098;8.726;2022-11-13T13:18:26;11.40;;;5.28;;
22176;SDS011;11254;50.098;8.726;2022-11-13T13:21:15;8.93;;;5.53;;
22176;SDS011;11254;50.098;8.726;2022-11-13T13:24:06;10.25;;;5.90;;
22176;SDS011;11254;50.098;8.726;2022-11-13T13:26:57;8.43;;;5.28;;
22176;SDS011;11254;50.098;8.726;2022-11-13T13:29:46;9.27;;;5.60;;
22176;SDS011;11254;50.098;8.726;2022-11-13T13:32:41;9.90;;;5.80;;
22176;SDS011;11254;50.098;8.726;2022-11-13T13:35:35;10.35;;;5.80;;
22176;SDS011;11254;50.098;8.726;2022-11-13T13:38:27;8.75;;;5.45;;
22176;SDS011;11254;50.098;8.726;2022-11-13T13:41:19;9.82;;;5.57;;
22176;SDS011;11254;50.098;8.726;2022-11-13T13:44:25;9.13;;;4.95;;
22176;SDS011;11254;50.098;8.726;2022-11-13T13:47:19;8.73;;;5.25;;
22176;SDS011;11254;50.098;8.726;2022-11-13T13:50:13;9.63;;;4.70;;
22176;SDS011;11254;50.098;8.726;2022-11-13T13:53:01;8.82;;;5.10;;
22176;SDS011;11254;50.098;8.726;2022-11-13T13:55:51;8.88;;;5.00;;
22176;SDS011;11254;50.098;8.726;2022-11-13T13:58:38;8.75;;;4.55;;
22176;SDS011;11254;50.098;8.726;2022-11-13T14:01:28;10.52;;;5.60;;
22176;SDS011;11254;50.098;8.726;2022-11-13T14:04:19;8.05;;;5.03;;
22176;SDS011;11254;50.098;8.726;2022-11-13T14:07:17;10.15;;;5.95;;
22176;SDS011;11254;50.098;8.726;2022-11-13T14:10:07;11.90;;;6.68;;
22176;SDS011;11254;50.098;8.726;2022-11-13T14:12:58;9.85;;;5.63;;
22176;SDS011;11254;50.098;8.726;2022-11-13T14:15:48;10.35;;;5.55;;
22176;SDS011;11254;50.098;8.726;2022-11-13T14:18:44;8.95;;;5.03;;
22176;SDS011;11254;50.098;8.726;2022-11-13T14:21:33;8.55;;;4.95;;
22176;SDS011;11254;50.098;8.726;2022-11-13T14:24:21;8.30;;;5.05;;
22176;SDS011;11254;50.098;8.726;2022-11-13T14:27:13;7.47;;;4.50;;
22176;SDS011;11254;50.098;8.726;2022-11-13T14:30:02;9.40;;;4.93;;
22176;SDS011;11254;50.098;8.726;2022-11-13T14:32:56;9.43;;;4.88;;
22176;SDS011;11254;50.098;8.726;2022-11-13T14:35:49;8.63;;;4.95;;
22176;SDS011;11254;50.098;8.726;2022-11-13T14:38:45;9.77;;;5.03;;
22176;SDS011;11254;50.098;8.726;2022-11-13T14:41:37;9.52;;;4.43;;
22176;SDS011;11254;50.098;8.726;2022-11-13T14:44:29;7.57;;;4.70;;
22176;SDS011;11254;50.098;8.726;2022-11-13T14:47:25;9.20;;;4.72;;
22176;SDS011;11254;50.098;8.726;2022-11-13T14:50:19;9.60;;;5.57;;
22176;SDS011;11254;50.098;8.726;2022-11-13T14:53:09;8.15;;;4.78;;
22176;SDS011;11254;50.098;8.726;2022-11-13T14:56:03;8.80;;;4.55;;
22176;SDS011;11254;50.098;8.726;2022-11-13T14:59:05;8.77;;;5.10;;
22176;SDS011;11254;50.098;8.726;2022-11-13T15:01:56;8.85;;;4.78;;
22176;SDS011;11254;50.098;8.726;2022-11-13T15:04:50;11.55;;;6.28;;
22176;SDS011;11254;50.098;8.726;2022-11-13T15:07:38;14.63;;;7.45;;
22176;SDS011;11254;50.098;8.726;2022-11-13T15:10:36;9.88;;;5.90;;
22176;SDS011;11254;50.098;8.726;2022-11-13T15:13:35;10.90;;;5.85;;
22176;SDS011;11254;50.098;8.726;2022-11-13T15:16:34;10.70;;;5.10;;
22176;SDS011;11254;50.098;8.726;2022-11-13T15:19:24;9.38;;;4.95;;
22176;SDS011;11254;50.098;8.726;2022-11-13T15:22:18;8.27;;;5.13;;
22176;SDS011;11254;50.098;8.726;2022-11-13T15:25:16;9.35;;;4.65;;
22176;SDS011;11254;50.098;8.726;2022-11-13T15:28:03;9.63;;;4.82;;
22176;SDS011;11254;50.098;8.726;2022-11-13T15:30:58;9.10;;;4.88;;
22176;SDS011;11254;50.098;8.726;2022-11-13T15:33:47;8.63;;;5.28;;
22176;SDS011;11254;50.098;8.726;2022-11-13T15:36:38;9.02;;;5.45;;
22176;SDS011;11254;50.098;8.726;2022-11-13T15:39:37;8.73;;;5.18;;
22176;SDS011;11254;50.098;8.726;2022-11-13T15:42:32;8.95;;;5.32;;
22176;SDS011;11254;50.098;8.726;2022-11-13T15:45:29;11.75;;;5.32;;
22176;SDS011;11254;50.098;8.726;2022-11-13T15:48:29;11.63;;;5.55;;
22176;SDS011;11254;50.098;8.726;2022-11-13T15:51:18;11.65;;;6.70;;
22176;SDS011;11254;50.098;8.726;2022-11-13T15:54:12;11.93;;;6.85;;
22176;SDS011;11254;50.098;8.726;2022-11-13T15:57:01;12.00;;;6.95;;
22176;SDS011;11254;50.098;8.726;2022-11-13T15:59:53;10.38;;;6.18;;
22176;SDS011;11254;50.098;8.726;2022-11-13T16:02:40;11.27;;;6.72;;
22176;SDS011;11254;50.098;8.726;2022-11-13T16:05:29;12.43;;;7.10;;
22176;SDS011;11254;50.098;8.726;2022-11-13T16:08:20;18.95;;;9.60;;
22176;SDS011;11254;50.098;8.726;2022-11-13T16:11:13;16.35;;;8.45;;
22176;SDS011;11254;50.098;8.726;2022-11-13T16:14:05;12.38;;;7.32;;
22176;SDS011;11254;50.098;8.726;2022-11-13T16:16:57;13.13;;;7.00;;
22176;SDS011;11254;50.098;8.726;2022-11-13T16:19:52;13.23;;;7.43;;
22176;SDS011;11254;50.098;8.726;2022-11-13T16:22:47;14.40;;;7.57;;
22176;SDS011;11254;50.098;8.726;2022-11-13T16:25:39;13.30;;;7.57;;
22176;SDS011;11254;50.098;8.726;2022-11-13T16:28:29;14.45;;;7.43;;
22176;SDS011;11254;50.098;8.726;2022-11-13T16:31:43;14.02;;;7.28;;
22176;SDS011;11254;50.098;8.726;2022-11-13T16:34:34;12.07;;;6.78;;
22176;SDS011;11254;50.098;8.726;2022-11-13T16:37:25;11.52;;;6.72;;
22176;SDS011;11254;50.098;8.726;2022-11-13T16:40:20;13.15;;;7.85;;
22176;SDS011;11254;50.098;8.726;2022-11-13T16:43:12;11.25;;;7.03;;
22176;SDS011;11254;50.098;8.726;2022-11-13T16:46:10;12.80;;;6.65;;
22176;SDS011;11254;50.098;8.726;2022-11-13T16:49:03;10.30;;;6.03;;
22176;SDS011;11254;50.098;8.726;2022-11-13T16:51:59;11.18;;;6.03;;
22176;SDS011;11254;50.098;8.726;2022-11-13T16:54:53;14.82;;;6.53;;
22176;SDS011;11254;50.098;8.726;2022-11-13T16:57:50;12.05;;;7.13;;